createdAt,value
2022-12-24T00:07:19.963Z,4.55
2022-12-24T00:15:42.917Z,4.45
2022-12-24T00:24:06.425Z,4.31
2022-12-24T00:32:29.247Z,4.27
2022-12-24T00:40:52.129Z,4.25
2022-12-24T00:49:15.217Z,4.19
2022-12-24T00:57:37.984Z,4.17
2022-12-24T01:06:12.216Z,4.15
2022-12-24T01:14:35.141Z,4.10
2022-12-24T01:22:58.068Z,4.04
2022-12-24T01:31:22.395Z,3.94
2022-12-24T01:39:45.870Z,3.84
2022-12-24T01:48:17.973Z,3.70
2022-12-24T01:56:48.296Z,3.61
2022-12-24T02:05:20.440Z,3.58
2022-12-24T02:14:03.346Z,3.62
2022-12-24T02:22:40.151Z,3.61
2022-12-24T02:31:10.636Z,3.61
2022-12-24T02:39:50.241Z,3.61
2022-12-24T02:48:15.315Z,3.60
2022-12-24T02:56:57.252Z,3.58
2022-12-24T03:05:23.091Z,3.49
2022-12-24T03:13:49.189Z,3.54
2022-12-24T03:22:14.599Z,3.55
2022-12-24T03:30:44.599Z,3.47
2022-12-24T03:39:08.241Z,3.43
2022-12-24T03:47:31.400Z,3.41
2022-12-24T03:55:54.185Z,3.39
2022-12-24T04:04:17.102Z,3.45
2022-12-24T04:12:39.976Z,3.44
2022-12-24T04:21:03.180Z,3.39
2022-12-24T04:29:26.044Z,3.39
2022-12-24T04:37:49.779Z,3.39
2022-12-24T04:46:18.015Z,3.35
2022-12-24T04:54:40.950Z,3.30
2022-12-24T05:03:03.881Z,3.27
2022-12-24T05:11:27.255Z,3.22
2022-12-24T05:19:50.140Z,3.20
2022-12-24T05:28:12.944Z,3.24
2022-12-24T05:36:36.521Z,3.29
2022-12-24T05:44:59.430Z,3.33
2022-12-24T05:53:22.842Z,3.40
2022-12-24T06:01:48.123Z,3.47
2022-12-24T06:10:11.308Z,3.27
2022-12-24T06:18:36.171Z,3.14
2022-12-24T06:27:01.717Z,3.16
2022-12-24T06:35:24.537Z,3.13
2022-12-24T06:43:50.224Z,3.07
2022-12-24T06:52:14.346Z,3.03
2022-12-24T07:00:37.560Z,3.03
2022-12-24T07:09:00.341Z,3.01
2022-12-24T07:17:23.590Z,3.00
2022-12-24T07:25:46.598Z,3.05
2022-12-24T07:34:09.667Z,3.08
2022-12-24T07:42:32.556Z,3.07
2022-12-24T07:50:56.815Z,3.02
2022-12-24T07:59:19.696Z,3.03
2022-12-24T08:07:42.548Z,3.05
2022-12-24T08:16:06.362Z,3.08
2022-12-24T08:24:29.293Z,3.11
2022-12-24T08:32:52.126Z,3.15
2022-12-24T08:41:15.040Z,3.16
2022-12-24T08:49:38.067Z,3.18
2022-12-24T08:58:01.471Z,3.22
2022-12-24T09:06:24.369Z,3.32
2022-12-24T09:14:47.228Z,3.39
2022-12-24T09:23:10.116Z,3.40
2022-12-24T09:31:33.450Z,3.43
2022-12-24T09:39:56.289Z,3.44
2022-12-24T09:48:25.039Z,3.41
2022-12-24T09:56:49.300Z,3.36
2022-12-24T10:05:17.760Z,3.34
2022-12-24T10:13:54.012Z,3.33
2022-12-24T10:22:43.619Z,3.33
2022-12-24T10:31:08.688Z,3.30
2022-12-24T10:39:31.943Z,3.28
2022-12-24T10:48:03.594Z,3.29
2022-12-24T10:56:26.597Z,3.31
2022-12-24T11:04:50.631Z,3.34
2022-12-24T11:13:37.260Z,3.39
2022-12-24T11:22:07.014Z,3.42
2022-12-24T11:30:32.732Z,3.48
2022-12-24T11:38:59.238Z,3.55
2022-12-24T11:47:40.704Z,3.55
2022-12-24T11:56:15.511Z,3.59
2022-12-24T12:04:41.506Z,3.64
2022-12-24T12:13:14.887Z,3.66
2022-12-24T12:21:46.694Z,3.66
2022-12-24T12:30:20.564Z,3.69
2022-12-24T12:38:43.421Z,3.70
2022-12-24T12:47:09.451Z,3.74
2022-12-24T12:55:52.357Z,3.71
2022-12-24T13:05:01.082Z,3.61
2022-12-24T13:13:55.156Z,3.58
2022-12-24T13:22:21.557Z,3.58
2022-12-24T13:30:45.259Z,3.57
2022-12-24T13:39:19.355Z,3.54
2022-12-24T13:47:42.642Z,3.57
2022-12-24T13:56:10.184Z,3.62
2022-12-24T14:04:40.899Z,3.65
2022-12-24T14:13:05.020Z,3.66
2022-12-24T14:21:59.372Z,3.59
2022-12-24T14:30:25.050Z,3.54
2022-12-24T14:38:48.731Z,3.57
2022-12-24T14:47:47.290Z,3.58
2022-12-24T14:56:15.323Z,3.52
2022-12-24T15:04:38.138Z,3.50
2022-12-24T15:13:07.625Z,3.50
2022-12-24T15:21:34.523Z,3.46
2022-12-24T15:29:58.261Z,3.39
2022-12-24T15:38:35.836Z,3.29
2022-12-24T15:47:01.020Z,3.26
2022-12-24T15:55:27.943Z,3.25
2022-12-24T16:03:50.951Z,3.28
2022-12-24T16:12:26.244Z,3.32
2022-12-24T16:20:50.902Z,3.35
2022-12-24T16:29:15.346Z,3.34
2022-12-24T16:37:38.161Z,3.29
2022-12-24T16:46:05.404Z,3.23
2022-12-24T16:54:33.248Z,3.19
2022-12-24T17:02:57.842Z,3.20
2022-12-24T17:11:24.172Z,3.21
2022-12-24T17:19:48.457Z,3.25
2022-12-24T17:28:11.281Z,3.32
2022-12-24T17:36:34.679Z,3.36
2022-12-24T17:44:57.551Z,3.35
2022-12-24T17:53:20.386Z,3.31
2022-12-24T18:01:43.467Z,3.24
2022-12-24T18:10:07.268Z,3.28
2022-12-24T18:18:30.129Z,3.36
2022-12-24T18:26:53.012Z,3.41
2022-12-24T18:35:16.330Z,3.35
2022-12-24T18:43:39.902Z,3.36
2022-12-24T18:52:05.212Z,3.41
2022-12-24T19:00:28.334Z,3.40
2022-12-24T19:09:00.230Z,3.40
2022-12-24T19:17:24.180Z,3.30
2022-12-24T19:25:47.221Z,3.15
2022-12-24T19:34:10.165Z,3.08
2022-12-24T19:42:33.617Z,3.02
2022-12-24T19:51:04.046Z,3.04
2022-12-24T19:59:26.846Z,3.12
2022-12-24T20:07:49.638Z,3.03
2022-12-24T20:16:17.338Z,2.98
2022-12-24T20:24:40.606Z,3.02
2022-12-24T20:33:03.781Z,3.01
2022-12-24T20:41:29.211Z,2.91
2022-12-24T20:49:52.032Z,2.86
2022-12-24T20:58:18.122Z,2.85
2022-12-24T21:06:41.015Z,2.87
2022-12-24T21:15:04.650Z,2.85
2022-12-24T21:23:28.302Z,2.79
2022-12-24T21:31:51.253Z,2.78
2022-12-24T21:40:14.231Z,2.88
2022-12-24T21:48:56.888Z,2.97
2022-12-24T21:57:42.938Z,3.00
2022-12-24T22:06:06.362Z,2.99
2022-12-24T22:14:29.152Z,2.93
2022-12-24T22:22:52.035Z,2.90
2022-12-24T22:31:20.452Z,2.93
2022-12-24T22:39:43.789Z,2.92
2022-12-24T22:48:06.888Z,2.85
2022-12-24T22:56:32.987Z,2.82
2022-12-24T23:04:59.172Z,2.82
2022-12-24T23:13:42.258Z,2.74
2022-12-24T23:22:06.370Z,2.62
2022-12-24T23:30:30.364Z,2.54
2022-12-24T23:38:54.030Z,2.48
2022-12-24T23:47:18.261Z,2.47
2022-12-24T23:55:42.747Z,2.47
